Prague, Czech Republic
Current Conditions -  °F | °C
As of 6:00 PM on Tuesday 27 Jan 2015 (Local Time) from LKKB Reporting Station
Overcast Overcast  
Wind Chill: 30°   Ceiling: 4200
Heat Index: 36°   Visibility: 6mi
Dew Point: 28°   Wind: 7mph
Humidity: 75%   Direction: 270°W
Pressure: 29.97"   Gusts: NA
Location:  50.08°N, 14.43°E
Report Text: LKKB 271600Z 27006KT 9999 SCT035 OVC042 02/M02 Q1015 NOSIG
Loading
Personal Weather Stations






























Interactive Weather Map New forecast layout! Learn more

10-Day Weather Forecast

Advertisements
Track Severe Weather on mobile